createdAt,value
2022-10-17T00:00:47.807Z,99539.34
2022-10-17T00:11:00.662Z,99533.75
2022-10-17T00:21:02.051Z,99534.38
2022-10-17T00:31:04.447Z,99528.72
2022-10-17T00:41:06.119Z,99526.84
2022-10-17T00:51:07.607Z,99544.31
2022-10-17T01:01:09.044Z,99526.44
2022-10-17T01:11:22.532Z,99540.34
2022-10-17T01:21:47.411Z,99545.38
2022-10-17T01:31:59.231Z,99551.41
2022-10-17T01:42:20.752Z,99553.47
2022-10-17T01:52:24.627Z,99539.38
2022-10-17T02:02:26.083Z,99538.75
2022-10-17T02:12:33.376Z,99508.44
2022-10-17T02:22:47.722Z,99526.31
2022-10-17T02:33:05.564Z,99521.31
2022-10-17T02:43:07.124Z,99518.22
2022-10-17T02:53:10.892Z,99522.19
2022-10-17T03:03:23.275Z,99520.75
2022-10-17T03:13:25.207Z,99524.88
2022-10-17T03:23:26.587Z,99513.44
2022-10-17T03:33:28.033Z,99520.94
2022-10-17T03:43:29.748Z,99530.72
2022-10-17T03:53:31.131Z,99528.84
2022-10-17T04:03:32.628Z,99545.47
2022-10-17T04:13:34.318Z,99558.13
2022-10-17T04:23:35.701Z,99561.47
2022-10-17T04:33:37.284Z,99546.75
2022-10-17T04:43:38.741Z,99562.53
2022-10-17T04:53:40.456Z,99566.66
2022-10-17T05:03:42.371Z,99569.16
2022-10-17T05:13:43.809Z,99579.31
2022-10-17T05:23:45.843Z,99576.19
2022-10-17T05:33:47.253Z,99574.53
2022-10-17T05:43:50.096Z,99583.06
2022-10-17T05:53:51.550Z,99593.25
2022-10-17T06:03:53.028Z,99588.06
2022-10-17T06:13:54.519Z,99594.69
2022-10-17T06:23:56.016Z,99614.84
2022-10-17T06:33:57.386Z,99628.13
2022-10-17T06:43:58.790Z,99629.56
2022-10-17T06:54:00.185Z,99650.97
2022-10-17T07:04:01.689Z,99654.50
2022-10-17T07:14:03.127Z,99658.59
2022-10-17T07:24:05.724Z,99674.16
2022-10-17T07:34:07.114Z,99677.44
2022-10-17T07:44:08.563Z,99688.66
2022-10-17T07:54:10.090Z,99691.06
2022-10-17T08:04:11.605Z,99672.09
2022-10-17T08:14:13.482Z,99676.13
2022-10-17T08:24:14.851Z,99683.66
2022-10-17T08:34:16.225Z,99704.03
2022-10-17T08:44:25.250Z,99717.66
2022-10-17T08:54:46.166Z,99727.34
2022-10-17T09:05:04.638Z,99748.56
2022-10-17T09:15:37.246Z,99749.03
2022-10-17T09:25:46.504Z,99752.63
2022-10-17T09:35:47.986Z,99769.44
2022-10-17T09:46:04.500Z,99786.06
2022-10-17T09:56:11.619Z,99797.53
2022-10-17T10:06:19.489Z,99796.28
2022-10-17T10:16:30.507Z,99813.75
2022-10-17T10:26:43.451Z,99810.38
2022-10-17T10:36:58.338Z,99831.75
2022-10-17T10:47:27.184Z,99831.75
2022-10-17T10:57:29.741Z,99839.75
2022-10-17T11:07:33.263Z,99854.63
2022-10-17T11:17:52.653Z,99873.63
2022-10-17T11:27:54.140Z,99857.53
2022-10-17T11:38:03.239Z,99871.91
2022-10-17T11:48:31.041Z,99869.00
2022-10-17T11:58:46.385Z,99872.28
2022-10-17T12:09:10.669Z,99869.53
2022-10-17T12:19:20.225Z,99885.00
2022-10-17T12:29:27.382Z,99893.84
2022-10-17T12:39:28.752Z,99881.34
2022-10-17T12:49:36.265Z,99899.56
2022-10-17T12:59:37.640Z,99896.69
2022-10-17T13:09:39.246Z,99910.44
2022-10-17T13:19:42.617Z,99919.63
2022-10-17T13:29:44.504Z,99934.47
2022-10-17T13:40:11.356Z,99950.56
2022-10-17T13:50:26.450Z,99964.59
2022-10-17T14:00:29.752Z,99959.00
2022-10-17T14:10:30.970Z,99960.91
2022-10-17T14:21:08.220Z,99961.69
2022-10-17T14:30:57.729Z,99959.16
2022-10-17T14:51:32.460Z,99997.34
2022-10-17T15:01:41.725Z,100002.84
2022-10-17T15:11:43.097Z,100020.78
2022-10-17T15:21:47.233Z,100022.47
2022-10-17T15:31:48.872Z,100026.44
2022-10-17T15:41:50.341Z,100021.28
2022-10-17T15:51:55.221Z,100034.84
2022-10-17T16:01:56.848Z,100062.59
2022-10-17T16:11:58.320Z,100085.94
2022-10-17T16:22:04.326Z,100099.28
2022-10-17T16:32:06.103Z,100120.13
2022-10-17T16:42:07.512Z,100135.75
2022-10-17T16:52:09.066Z,100136.56
2022-10-17T17:02:10.744Z,100137.78
2022-10-17T17:12:12.230Z,100142.97
2022-10-17T17:22:13.632Z,100153.38
2022-10-17T17:32:15.138Z,100172.09
2022-10-17T17:42:16.643Z,100163.53
2022-10-17T17:52:18.128Z,100178.06
2022-10-17T18:02:19.647Z,100181.00
2022-10-17T18:12:21.010Z,100175.97
2022-10-17T18:22:23.051Z,100195.75
2022-10-17T18:32:24.421Z,100200.91
2022-10-17T18:42:25.839Z,100206.28
2022-10-17T18:52:27.339Z,100214.81
2022-10-17T19:02:28.785Z,100221.00
2022-10-17T19:12:30.159Z,100224.28
2022-10-17T19:22:33.019Z,100233.00
2022-10-17T19:32:35.825Z,100229.84
2022-10-17T19:42:37.233Z,100243.16
2022-10-17T19:52:38.614Z,100252.03
2022-10-17T20:02:40.099Z,100262.59
2022-10-17T20:12:41.468Z,100255.09
2022-10-17T20:22:42.833Z,100269.59
2022-10-17T20:32:44.307Z,100277.47
2022-10-17T20:42:45.799Z,100272.63
2022-10-17T20:52:47.530Z,100280.28
2022-10-17T21:02:48.940Z,100290.19
2022-10-17T21:12:54.243Z,100291.63
2022-10-17T21:22:57.204Z,100284.09
2022-10-17T21:32:58.976Z,100287.41
2022-10-17T21:43:00.494Z,100285.63
2022-10-17T21:53:01.857Z,100287.03
2022-10-17T22:03:04.109Z,100289.28
2022-10-17T22:13:05.613Z,100305.22
2022-10-17T22:23:07.094Z,100306.63
2022-10-17T22:33:08.500Z,100303.47
2022-10-17T22:43:10.009Z,100314.28
2022-10-17T22:53:12.209Z,100315.50
2022-10-17T23:03:13.731Z,100305.09
2022-10-17T23:13:15.163Z,100305.44
2022-10-17T23:23:16.613Z,100293.81
2022-10-17T23:33:17.978Z,100290.03
2022-10-17T23:43:19.460Z,100294.59
2022-10-17T23:53:21.340Z,100287.09
